Time;durP1;ratioP1;P1;durP2;ratioP2;P2;SDS_P1;SDS_P2;PMS_P1;PMS_P2;Temp;Humidity;BMP_temperature;BMP_pressure;BME280_temperature;BME280_humidity;BME280_pressure;Samples;Min_cycle;Max_cycle;Signal;HPM_P1;HPM_P2
2020/12/28 00:01:58;;;;;;;1.70;0.97;;;;;;;5.32;84.55;92933.41;5119234;28;20471;-79
2020/12/28 00:04:25;;;;;;;1.97;1.30;;;;;;;5.35;84.54;92938.28;5121067;28;20467;-79
2020/12/28 00:06:51;;;;;;;2.60;1.60;;;;;;;5.18;84.62;92924.63;5121328;28;20460;-80
2020/12/28 00:09:18;;;;;;;2.40;1.43;;;;;;;5.16;84.49;92924.53;5121294;28;20452;-81
2020/12/28 00:11:44;;;;;;;5.53;1.50;;;;;;;5.12;85.06;92935.69;5112414;28;20503;-80
2020/12/28 00:14:11;;;;;;;1.80;1.30;;;;;;;5.13;84.96;92929.06;5102069;28;20440;-79
2020/12/28 00:16:38;;;;;;;2.00;0.93;;;;;;;5.03;85.52;92925.16;5097223;28;20447;-79
2020/12/28 00:19:04;;;;;;;2.77;1.07;;;;;;;4.99;85.55;92917.63;5098407;28;20813;-80
2020/12/28 00:21:30;;;;;;;2.30;0.70;;;;;;;4.96;85.85;92912.75;5103163;28;20969;-80
2020/12/28 00:23:57;;;;;;;2.83;1.03;;;;;;;4.99;86.17;92917.63;5102083;28;20816;-80
2020/12/28 00:26:25;;;;;;;1.73;1.20;;;;;;;5.01;85.65;92912.38;5101238;28;20532;-79
2020/12/28 00:28:51;;;;;;;2.97;1.70;;;;;;;4.84;85.95;92918.16;5096800;28;20456;-78
2020/12/28 00:31:18;;;;;;;2.90;1.70;;;;;;;4.96;86.09;92913.47;5100289;28;20995;-80
2020/12/28 00:33:45;;;;;;;3.30;1.37;;;;;;;4.88;86.31;92912.34;5101606;28;20436;-80
2020/12/28 00:36:15;;;;;;;2.83;1.40;;;;;;;4.92;86.84;92907.88;5101171;28;20487;-80
2020/12/28 00:38:41;;;;;;;3.37;1.07;;;;;;;4.92;86.59;92913.22;5101998;28;20485;-81
2020/12/28 00:41:11;;;;;;;6.50;1.90;;;;;;;4.90;86.90;92902.44;5102381;28;20492;-81
2020/12/28 00:43:39;;;;;;;1.80;1.17;;;;;;;4.88;87.29;92907.00;5102740;28;20768;-81
2020/12/28 00:46:06;;;;;;;2.40;1.13;;;;;;;4.86;87.76;92905.59;5100324;28;20533;-79
2020/12/28 00:48:34;;;;;;;1.30;1.10;;;;;;;4.96;87.40;92908.13;5097332;28;20516;-79
2020/12/28 00:51:00;;;;;;;2.53;1.40;;;;;;;4.98;87.14;92908.22;5100542;28;20491;-81
2020/12/28 00:53:28;;;;;;;2.30;1.30;;;;;;;5.02;87.15;92911.09;5100182;28;20452;-81
2020/12/28 00:55:54;;;;;;;1.33;1.13;;;;;;;5.05;87.59;92904.59;5099252;28;20479;-83
2020/12/28 00:58:20;;;;;;;2.70;1.20;;;;;;;5.01;87.55;92901.03;5099400;28;20911;-82
2020/12/28 01:00:47;;;;;;;1.50;1.10;;;;;;;4.93;87.97;92885.25;5097330;28;20948;-80
2020/12/28 01:03:13;;;;;;;2.37;1.13;;;;;;;4.96;88.37;92891.38;5098854;28;20501;-81
2020/12/28 01:05:41;;;;;;;1.83;1.03;;;;;;;5.01;87.94;92898.34;5101512;28;20443;-81
2020/12/28 01:08:07;;;;;;;0.73;0.57;;;;;;;5.00;88.18;92892.31;5100124;28;20445;-82
2020/12/28 01:10:34;;;;;;;1.20;0.70;;;;;;;4.96;88.38;92883.38;5098783;28;20468;-83
2020/12/28 01:13:00;;;;;;;2.53;1.27;;;;;;;4.86;88.58;92888.88;5099620;28;20548;-83
2020/12/28 01:15:27;;;;;;;1.20;0.80;;;;;;;4.91;88.78;92879.13;5098526;28;20491;-82
2020/12/28 01:17:54;;;;;;;1.53;1.03;;;;;;;4.90;88.95;92883.06;5098698;28;20447;-83
2020/12/28 01:20:21;;;;;;;3.47;1.70;;;;;;;5.05;88.75;92885.19;5098881;28;20455;-82
2020/12/28 01:22:48;;;;;;;2.13;1.13;;;;;;;5.02;88.94;92884.41;5098944;28;20460;-83
2020/12/28 01:25:15;;;;;;;3.90;1.33;;;;;;;4.96;89.08;92894.06;5099097;28;20460;-82
2020/12/28 01:27:41;;;;;;;5.17;2.67;;;;;;;4.84;90.21;92902.81;5098750;28;20857;-81
2020/12/28 01:30:08;;;;;;;4.87;2.03;;;;;;;4.86;89.94;92899.56;5098555;28;20433;-82
2020/12/28 01:32:35;;;;;;;11.17;2.70;;;;;;;4.83;90.11;92901.44;5100331;28;20464;-82
2020/12/28 01:35:01;;;;;;;5.43;2.80;;;;;;;4.82;90.60;92900.03;5113878;28;20476;-79
2020/12/28 01:37:27;;;;;;;4.50;2.77;;;;;;;4.90;90.08;92899.78;5113079;28;20444;-79
2020/12/28 01:39:55;;;;;;;4.37;2.10;;;;;;;4.94;90.10;92894.66;5112483;28;20445;-79
2020/12/28 01:42:21;;;;;;;7.30;1.77;;;;;;;5.07;89.75;92902.03;5104931;28;20510;-78
2020/12/28 01:44:47;;;;;;;3.17;1.73;;;;;;;5.06;89.95;92899.94;5098908;28;20432;-78
2020/12/28 01:47:14;;;;;;;4.03;1.40;;;;;;;5.04;90.00;92900.53;5094269;28;20444;-78
2020/12/28 01:49:41;;;;;;;2.67;1.27;;;;;;;4.99;90.60;92895.56;5101075;28;20414;-80
2020/12/28 01:52:07;;;;;;;3.20;1.33;;;;;;;5.02;90.70;92895.06;5098650;28;20482;-79
2020/12/28 01:54:34;;;;;;;5.97;1.80;;;;;;;5.00;90.67;92908.34;5094984;28;20541;-79
2020/12/28 01:57:01;;;;;;;2.80;1.80;;;;;;;4.95;90.79;92901.38;5095002;28;20813;-79
2020/12/28 01:59:28;;;;;;;2.27;1.60;;;;;;;4.94;91.44;92897.34;5095248;28;20424;-79
2020/12/28 02:01:55;;;;;;;2.13;1.43;;;;;;;5.08;91.39;92892.72;5100500;28;20473;-82
2020/12/28 02:04:22;;;;;;;1.90;1.13;;;;;;;5.02;91.38;92895.06;5098716;28;20444;-78
2020/12/28 02:06:50;;;;;;;1.83;1.10;;;;;;;5.02;91.62;92892.41;5094052;28;20456;-79
2020/12/28 02:09:16;;;;;;;1.10;0.90;;;;;;;5.10;91.75;92887.50;5095300;28;20833;-78
2020/12/28 02:11:43;;;;;;;1.93;1.20;;;;;;;5.04;92.70;92892.53;5095056;28;20465;-79
2020/12/28 02:14:10;;;;;;;1.23;1.03;;;;;;;4.86;93.03;92883.53;5094775;28;20929;-79
2020/12/28 02:16:37;;;;;;;0.60;0.60;;;;;;;4.90;93.77;92893.75;5097970;28;20510;-80
2020/12/28 02:19:03;;;;;;;1.10;0.80;;;;;;;4.85;93.86;92898.84;5100859;28;20443;-80
2020/12/28 02:21:30;;;;;;;2.07;0.80;;;;;;;4.86;94.71;92892.25;5100820;28;20468;-80
2020/12/28 02:23:57;;;;;;;0.70;0.57;;;;;;;4.88;95.26;92893.66;5101230;28;20849;-80
2020/12/28 02:26:24;;;;;;;3.37;0.90;;;;;;;4.76;95.65;92880.34;5100334;28;20423;-80
2020/12/28 02:28:50;;;;;;;1.07;0.80;;;;;;;4.78;96.43;92883.13;5100874;28;20810;-78
2020/12/28 02:31:16;;;;;;;0.83;0.60;;;;;;;4.79;97.00;92877.16;5103028;28;20516;-80
2020/12/28 02:33:43;;;;;;;1.00;0.73;;;;;;;4.70;97.58;92877.31;5104279;28;20522;-80
2020/12/28 02:36:10;;;;;;;5.00;0.67;;;;;;;4.76;98.31;92872.34;5102059;28;20458;-78
2020/12/28 02:38:36;;;;;;;0.80;0.50;;;;;;;4.69;98.79;92865.28;5098421;28;20953;-77
2020/12/28 02:41:05;;;;;;;1.70;0.83;;;;;;;4.76;98.65;92867.00;5098862;28;20473;-77
2020/12/28 02:43:31;;;;;;;0.60;0.60;;;;;;;4.73;99.00;92857.47;5098834;28;20448;-81
2020/12/28 02:45:58;;;;;;;1.33;0.70;;;;;;;4.64;99.84;92855.63;5104487;28;20415;-81
2020/12/28 02:48:24;;;;;;;1.17;0.80;;;;;;;4.55;100.00;92846.50;5100944;28;20527;-79
2020/12/28 02:50:51;;;;;;;0.70;0.60;;;;;;;4.58;100.00;92855.31;5097995;28;20843;-79
2020/12/28 02:53:18;;;;;;;0.80;0.50;;;;;;;4.59;100.00;92846.03;5098334;28;20451;-79
2020/12/28 02:55:44;;;;;;;0.63;0.40;;;;;;;4.61;100.00;92851.47;5099434;28;20480;-82
2020/12/28 02:58:12;;;;;;;1.13;0.70;;;;;;;4.58;100.00;92855.31;5102136;28;20536;-82
2020/12/28 03:00:38;;;;;;;0.70;0.60;;;;;;;4.61;100.00;92854.16;5102570;28;20815;-82
2020/12/28 03:03:04;;;;;;;1.43;0.50;;;;;;;4.61;100.00;92843.47;5103815;28;20439;-80
2020/12/28 03:05:31;;;;;;;0.67;0.50;;;;;;;4.61;100.00;92846.84;5103482;28;20440;-80
2020/12/28 03:07:57;;;;;;;0.70;0.60;;;;;;;4.66;99.59;92835.09;5102619;28;20428;-80
2020/12/28 03:10:23;;;;;;;0.67;0.67;;;;;;;4.55;100.00;92835.13;5103865;28;20454;-80
2020/12/28 03:12:50;;;;;;;1.00;0.50;;;;;;;4.50;100.00;92831.56;5102119;28;20511;-82
2020/12/28 03:15:17;;;;;;;0.70;0.60;;;;;;;4.48;100.00;92833.44;5101958;28;20484;-81
2020/12/28 03:17:43;;;;;;;0.50;0.40;;;;;;;4.43;100.00;92840.53;5101021;28;20432;-78
2020/12/28 03:20:09;;;;;;;2.00;0.80;;;;;;;4.45;100.00;92839.94;5100150;28;20407;-80
2020/12/28 03:22:36;;;;;;;1.20;1.07;;;;;;;4.52;100.00;92833.63;5102301;28;20988;-80
2020/12/28 03:25:02;;;;;;;1.53;0.63;;;;;;;4.36;100.00;92833.47;5102455;28;20507;-80
2020/12/28 03:27:29;;;;;;;1.73;0.70;;;;;;;4.39;100.00;92832.28;5102141;28;20455;-78
2020/12/28 03:29:55;;;;;;;0.83;0.50;;;;;;;4.39;100.00;92824.28;5099257;28;20686;-78
2020/12/28 03:32:22;;;;;;;1.70;0.80;;;;;;;4.31;100.00;92832.56;5097764;28;20468;-79
2020/12/28 03:34:49;;;;;;;1.33;0.57;;;;;;;4.33;100.00;92835.34;5117097;28;20467;-79
2020/12/28 03:37:15;;;;;;;2.20;0.80;;;;;;;4.42;100.00;92838.44;5120616;28;20433;-79
2020/12/28 03:39:41;;;;;;;3.40;0.63;;;;;;;4.46;99.57;92839.34;5116676;28;20471;-78
2020/12/28 03:42:08;;;;;;;0.70;0.50;;;;;;;4.36;99.74;92835.44;5112626;28;20456;-79
2020/12/28 03:44:34;;;;;;;1.40;0.77;;;;;;;4.41;100.00;92831.72;5102971;28;20933;-77
2020/12/28 03:47:00;;;;;;;1.07;0.70;;;;;;;4.36;99.67;92825.47;5097165;28;20766;-77
2020/12/28 03:49:28;;;;;;;0.67;0.47;;;;;;;4.32;99.67;92820.59;5097320;28;20448;-78
2020/12/28 03:51:54;;;;;;;1.87;0.50;;;;;;;4.34;99.94;92809.34;5098870;28;20527;-81
2020/12/28 03:54:20;;;;;;;0.50;0.40;;;;;;;4.32;99.92;92801.91;5103365;28;20877;-81
2020/12/28 03:56:47;;;;;;;2.23;0.73;;;;;;;4.28;99.68;92803.69;5098468;28;20490;-77
2020/12/28 03:59:13;;;;;;;1.27;0.80;;;;;;;4.25;99.79;92786.88;5096870;28;20423;-79
2020/12/28 04:01:39;;;;;;;2.00;0.80;;;;;;;4.22;99.56;92780.03;5096676;28;20456;-77
2020/12/28 04:04:06;;;;;;;1.20;0.73;;;;;;;4.16;100.00;92793.06;5097292;28;20444;-78
2020/12/28 04:06:33;;;;;;;0.93;0.57;;;;;;;4.16;99.74;92792.34;5097987;28;20432;-78
2020/12/28 04:08:59;;;;;;;0.67;0.60;;;;;;;4.17;99.53;92791.75;5099656;28;20436;-81
2020/12/28 04:11:26;;;;;;;1.23;0.70;;;;;;;4.09;99.96;92788.66;5102336;28;20559;-81
2020/12/28 04:13:52;;;;;;;2.30;0.67;;;;;;;4.06;100.00;92779.16;5101383;28;20508;-82
2020/12/28 04:16:18;;;;;;;4.30;0.70;;;;;;;3.98;100.00;92781.38;5102142;28;20563;-81
2020/12/28 04:18:45;;;;;;;1.33;0.80;;;;;;;3.94;100.00;92783.84;5102755;28;20440;-82
2020/12/28 04:21:11;;;;;;;1.93;0.40;;;;;;;3.93;100.00;92781.75;5098530;28;20467;-78
2020/12/28 04:23:38;;;;;;;1.17;0.60;;;;;;;3.84;100.00;92785.25;5100010;28;20451;-80
2020/12/28 04:26:05;;;;;;;1.23;0.50;;;;;;;3.82;100.00;92780.50;5102596;28;20496;-81
2020/12/28 04:28:31;;;;;;;1.57;0.70;;;;;;;3.84;100.00;92774.59;5102274;28;20506;-81
2020/12/28 04:30:58;;;;;;;1.03;0.60;;;;;;;3.79;100.00;92773.66;5099364;28;20423;-79
2020/12/28 04:33:24;;;;;;;1.17;0.73;;;;;;;3.85;100.00;92795.34;5099171;28;20433;-80
2020/12/28 04:35:51;;;;;;;1.47;0.60;;;;;;;3.89;100.00;92787.53;5099240;28;20482;-80
2020/12/28 04:38:17;;;;;;;2.63;0.97;;;;;;;3.94;100.00;92799.84;5098908;28;20445;-81
2020/12/28 04:40:44;;;;;;;2.07;0.67;;;;;;;3.95;100.00;92790.53;5099918;28;20441;-80
2020/12/28 04:43:12;;;;;;;2.50;0.70;;;;;;;3.93;100.00;92793.09;5096892;28;20447;-78
2020/12/28 04:45:38;;;;;;;0.73;0.73;;;;;;;3.96;100.00;92781.28;5095731;28;20593;-79
2020/12/28 04:48:08;;;;;;;1.17;0.80;;;;;;;4.04;100.00;92781.72;5095737;28;20448;-77
2020/12/28 04:50:35;;;;;;;2.90;0.70;;;;;;;4.03;100.00;92780.34;5096061;28;20456;-77
2020/12/28 04:53:03;;;;;;;1.37;0.50;;;;;;;4.03;100.00;92776.97;5097022;28;20461;-80
2020/12/28 04:55:30;;;;;;;0.87;0.43;;;;;;;4.08;100.00;92775.91;5099904;28;20847;-80
2020/12/28 04:57:58;;;;;;;0.73;0.57;;;;;;;3.99;100.00;92768.75;5101025;28;20472;-79
2020/12/28 05:00:24;;;;;;;0.80;0.53;;;;;;;3.94;100.00;92769.81;5096523;28;20523;-79
2020/12/28 05:02:51;;;;;;;1.17;0.70;;;;;;;4.03;100.00;92772.34;5096298;28;20510;-79
2020/12/28 05:05:17;;;;;;;0.60;0.47;;;;;;;3.96;100.00;92765.28;5096303;28;20495;-79
2020/12/28 05:07:49;;;;;;;1.37;0.50;;;;;;;3.85;100.00;92765.31;5096225;28;20444;-79
2020/12/28 05:10:23;;;;;;;1.00;0.70;;;;;;;3.94;100.00;92767.84;5095310;28;20491;-78
2020/12/28 05:12:50;;;;;;;1.50;0.80;;;;;;;3.96;100.00;92753.91;5095055;28;20468;-78
2020/12/28 05:15:18;;;;;;;0.60;0.50;;;;;;;3.91;100.00;92761.00;5095853;28;20484;-79
2020/12/28 05:17:53;;;;;;;1.90;0.60;;;;;;;3.95;100.00;92753.22;5095908;28;20444;-79
2020/12/28 05:20:23;;;;;;;1.27;0.63;;;;;;;4.05;100.00;92751.09;5098178;28;20478;-79
2020/12/28 05:22:51;;;;;;;1.80;1.00;;;;;;;4.10;100.00;92752.03;5096666;28;20460;-80
2020/12/28 05:25:18;;;;;;;1.07;0.83;;;;;;;4.21;100.00;92749.31;5100418;28;20441;-81
2020/12/28 05:27:46;;;;;;;0.90;0.77;;;;;;;4.18;100.00;92753.16;5101174;28;20475;-79
2020/12/28 05:30:13;;;;;;;0.80;0.70;;;;;;;4.17;100.00;92757.09;5095962;28;20517;-79
2020/12/28 05:32:44;;;;;;;0.93;0.60;;;;;;;4.22;100.00;92747.34;5095358;28;20992;-78
2020/12/28 05:35:13;;;;;;;1.67;0.80;;;;;;;4.22;100.00;92752.66;5097768;28;20435;-80
2020/12/28 05:37:40;;;;;;;1.80;0.80;;;;;;;4.27;99.86;92757.63;5098563;28;20437;-80
2020/12/28 05:40:10;;;;;;;1.00;0.50;;;;;;;4.29;99.86;92765.06;5100220;28;20443;-80
2020/12/28 05:42:38;;;;;;;1.27;0.70;;;;;;;4.35;100.00;92768.03;5097950;28;20456;-79
2020/12/28 05:45:08;;;;;;;1.37;0.77;;;;;;;4.34;99.68;92769.31;5096357;28;20451;-79
2020/12/28 05:47:40;;;;;;;1.60;0.73;;;;;;;4.28;100.00;92763.66;5097241;28;20447;-79
2020/12/28 05:50:09;;;;;;;1.80;1.03;;;;;;;4.29;100.00;92762.38;5096620;28;20421;-79
2020/12/28 05:52:38;;;;;;;1.23;0.70;;;;;;;4.39;100.00;92764.88;5096434;28;20540;-79
2020/12/28 05:55:05;;;;;;;1.50;0.93;;;;;;;4.38;99.97;92758.88;5096295;28;20480;-79
2020/12/28 05:57:31;;;;;;;1.17;0.80;;;;;;;4.29;100.00;92768.41;5097883;28;20478;-83
2020/12/28 05:59:58;;;;;;;1.20;0.70;;;;;;;4.24;100.00;92774.09;5100679;28;20451;-82
2020/12/28 06:02:28;;;;;;;1.20;0.90;;;;;;;4.27;100.00;92770.97;5100047;28;20991;-82
2020/12/28 06:04:54;;;;;;;2.03;0.83;;;;;;;4.28;100.00;92775.03;5101509;28;20443;-81
2020/12/28 06:07:22;;;;;;;0.77;0.67;;;;;;;4.29;100.00;92762.38;5101035;28;20967;-81
2020/12/28 06:09:56;;;;;;;1.80;1.10;;;;;;;4.19;100.00;92761.84;5100603;28;20794;-81
2020/12/28 06:12:22;;;;;;;1.77;0.73;;;;;;;4.19;100.00;92769.84;5101458;28;20528;-81
2020/12/28 06:14:48;;;;;;;1.87;0.57;;;;;;;4.24;100.00;92769.47;5098322;28;20447;-78
2020/12/28 06:17:15;;;;;;;3.53;0.83;;;;;;;4.18;100.00;92769.16;5095580;28;20429;-78
2020/12/28 06:19:42;;;;;;;0.77;0.70;;;;;;;4.16;100.00;92769.03;5095317;28;20444;-78
2020/12/28 06:22:18;;;;;;;1.53;0.77;;;;;;;4.06;100.00;92773.13;5095276;28;20976;-78
2020/12/28 06:24:56;;;;;;;1.37;0.93;;;;;;;4.10;100.00;92768.69;5095041;28;20428;-78
2020/12/28 06:27:30;;;;;;;1.90;0.90;;;;;;;4.18;100.00;92773.78;5095323;28;20436;-78
2020/12/28 06:30:10;;;;;;;1.33;1.13;;;;;;;4.13;100.00;92769.53;5095899;28;20803;-80
2020/12/28 06:32:38;;;;;;;5.73;0.83;;;;;;;4.09;100.00;92770.00;5099434;28;20486;-80
2020/12/28 06:35:06;;;;;;;2.37;0.90;;;;;;;4.16;100.00;92776.34;5099729;28;20984;-80
2020/12/28 06:37:40;;;;;;;1.30;1.00;;;;;;;4.19;100.00;92781.22;5100480;28;20448;-80
2020/12/28 06:40:07;;;;;;;1.80;0.80;;;;;;;4.14;100.00;92773.56;5100674;28;20424;-80
2020/12/28 06:42:34;;;;;;;1.10;0.73;;;;;;;4.16;100.00;92771.03;5096480;28;20502;-79
2020/12/28 06:45:11;;;;;;;1.40;0.60;;;;;;;4.24;100.00;92780.16;5095255;28;20480;-79
2020/12/28 06:47:38;;;;;;;4.33;1.10;;;;;;;4.25;100.00;92778.88;5094863;28;20416;-79
2020/12/28 06:50:04;;;;;;;3.97;0.60;;;;;;;4.28;100.00;92766.34;5094985;28;20546;-79
2020/12/28 06:52:30;;;;;;;2.20;0.90;;;;;;;4.14;100.00;92771.59;5095157;28;20460;-78
2020/12/28 06:55:09;;;;;;;1.13;0.80;;;;;;;4.17;100.00;92770.41;5095857;28;21009;-82
2020/12/28 06:57:36;;;;;;;1.67;0.90;;;;;;;4.14;100.00;92762.88;5098386;28;20972;-79
2020/12/28 07:00:04;;;;;;;0.70;0.70;;;;;;;4.23;100.00;92754.03;5094543;28;20436;-79
2020/12/28 07:02:32;;;;;;;0.60;0.60;;;;;;;4.26;100.00;92763.56;5099957;28;20464;-80
2020/12/28 07:05:01;;;;;;;2.30;1.00;;;;;;;4.29;100.00;92773.72;5095006;28;20433;-79
2020/12/28 07:07:27;;;;;;;2.20;0.70;;;;;;;4.20;100.00;92757.88;5096299;28;20452;-80
2020/12/28 07:09:54;;;;;;;0.70;0.63;;;;;;;4.19;100.00;92761.84;5096888;28;20790;-79
2020/12/28 07:12:21;;;;;;;1.53;0.50;;;;;;;4.21;100.00;92756.59;5095886;28;20543;-80
2020/12/28 07:14:48;;;;;;;3.70;1.10;;;;;;;4.15;100.00;92770.31;5117274;28;20423;-78
2020/12/28 07:17:14;;;;;;;3.73;0.80;;;;;;;4.18;100.00;92768.44;5122596;28;20424;-78
2020/12/28 07:19:40;;;;;;;1.27;0.60;;;;;;;4.21;100.00;92781.31;5122202;28;20440;-78
2020/12/28 07:22:06;;;;;;;1.27;0.80;;;;;;;4.28;100.00;92771.66;5121645;28;20466;-78
2020/12/28 07:24:33;;;;;;;2.03;0.80;;;;;;;4.35;100.00;92770.72;5109572;28;20819;-82
2020/12/28 07:26:59;;;;;;;3.47;1.10;;;;;;;4.31;100.00;92770.50;5101152;28;20509;-80
2020/12/28 07:29:27;;;;;;;1.17;0.80;;;;;;;4.43;100.00;92765.09;5103504;28;21079;-82
2020/12/28 07:32:03;;;;;;;0.80;0.80;;;;;;;4.49;100.00;92766.13;5099760;28;20460;-83
2020/12/28 07:34:29;;;;;;;2.13;0.73;;;;;;;4.38;100.00;92766.88;5101378;28;20492;-81
2020/12/28 07:36:57;;;;;;;1.50;1.07;;;;;;;4.29;100.00;92763.06;5102798;28;20482;-80
2020/12/28 07:39:24;;;;;;;3.50;2.10;;;;;;;4.26;100.00;92756.22;5103213;28;20795;-80
2020/12/28 07:41:50;;;;;;;1.83;1.43;;;;;;;4.27;100.00;92759.59;5102738;28;20429;-80
2020/12/28 07:44:17;;;;;;;1.80;1.23;;;;;;;4.32;100.00;92753.88;5103155;28;20452;-82
2020/12/28 07:46:54;;;;;;;2.17;1.37;;;;;;;4.29;100.00;92746.38;5103282;28;20531;-82
2020/12/28 07:49:23;;;;;;;1.00;0.60;;;;;;;4.33;100.00;92741.94;5102520;28;20844;-82
2020/12/28 07:51:51;;;;;;;1.47;1.00;;;;;;;4.33;100.00;92735.91;5103100;28;20842;-83
2020/12/28 07:54:22;;;;;;;2.37;1.33;;;;;;;4.35;100.00;92730.00;5103293;28;20506;-82
2020/12/28 07:56:53;;;;;;;2.10;1.30;;;;;;;4.36;100.00;92732.06;5107826;28;20488;-81
2020/12/28 08:00:00;;;;;;;0.80;0.80;;;;;;;4.31;100.00;92727.81;5118874;28;20439;-83
2020/12/28 08:02:46;;;;;;;1.73;0.90;;;;;;;4.30;100.00;92724.44;5086385;28;20576;-80
2020/12/28 08:05:13;;;;;;;2.57;1.20;;;;;;;4.24;100.00;92720.75;5111192;28;20439;-79
2020/12/28 08:07:40;;;;;;;3.73;1.43;;;;;;;4.25;100.00;92716.81;5098676;28;20451;-79
2020/12/28 08:10:11;;;;;;;2.10;1.17;;;;;;;4.21;100.00;92719.97;5097832;28;20423;-79
2020/12/28 08:12:40;;;;;;;1.37;1.13;;;;;;;4.33;100.00;92717.94;5098014;28;20463;-79
2020/12/28 08:15:06;;;;;;;1.20;0.80;;;;;;;4.41;100.00;92717.66;5100699;28;20449;-81
2020/12/28 08:17:33;;;;;;;1.27;1.00;;;;;;;4.30;100.00;92711.09;5100270;28;20478;-79
2020/12/28 08:20:11;;;;;;;1.00;0.60;;;;;;;4.21;100.00;92698.63;5097474;28;20510;-78
2020/12/28 08:22:37;;;;;;;1.60;1.23;;;;;;;4.14;100.00;92696.22;5097124;28;20546;-78
2020/12/28 08:25:06;;;;;;;1.50;1.20;;;;;;;4.12;100.00;92707.47;5097059;28;20432;-80
2020/12/28 08:27:33;;;;;;;1.80;1.17;;;;;;;4.13;100.00;92706.19;5101412;28;20503;-80
2020/12/28 08:30:01;;;;;;;1.23;1.13;;;;;;;4.20;100.00;92715.91;5100184;28;20448;-79
2020/12/28 08:32:30;;;;;;;2.17;1.10;;;;;;;4.19;100.00;92709.19;5098667;28;20456;-79
2020/12/28 08:34:58;;;;;;;1.70;0.80;;;;;;;4.17;100.00;92717.06;5098561;28;20444;-79
2020/12/28 08:37:26;;;;;;;1.90;0.73;;;;;;;4.20;100.00;92713.22;5102622;28;20512;-81
2020/12/28 08:39:52;;;;;;;0.63;0.50;;;;;;;4.18;100.00;92709.75;5114376;28;20421;-80
2020/12/28 08:42:31;;;;;;;1.60;0.60;;;;;;;4.19;100.00;92695.16;5114097;28;20464;-80
2020/12/28 08:44:58;;;;;;;1.93;0.70;;;;;;;4.22;100.00;92697.34;5105315;28;20504;-77
2020/12/28 08:47:27;;;;;;;0.80;0.80;;;;;;;4.21;100.00;92676.56;5104311;28;20441;-79
2020/12/28 08:49:53;;;;;;;0.70;0.60;;;;;;;4.08;100.00;92682.56;5098488;28;20444;-79
2020/12/28 08:52:21;;;;;;;0.93;0.53;;;;;;;4.20;100.00;92712.53;5099638;28;20473;-79
2020/12/28 08:54:54;;;;;;;1.97;0.73;;;;;;;4.24;100.00;92739.44;5099334;28;20429;-79
2020/12/28 08:57:22;;;;;;;2.27;1.33;;;;;;;4.26;100.00;92753.56;5100243;28;20468;-83
2020/12/28 08:59:48;;;;;;;3.30;0.47;;;;;;;4.21;100.00;92765.31;5099781;28;20929;-82
2020/12/28 09:02:16;;;;;;;1.30;0.50;;;;;;;4.22;100.00;92750.69;5100677;28;20479;-81
2020/12/28 09:04:42;;;;;;;3.53;0.90;;;;;;;4.24;100.00;92758.81;5101202;28;20455;-81
2020/12/28 09:07:08;;;;;;;1.23;0.70;;;;;;;4.22;100.00;92758.69;5102816;28;20444;-80
2020/12/28 09:09:35;;;;;;;1.00;0.63;;;;;;;4.16;100.00;92760.34;5099817;28;20444;-79
2020/12/28 09:12:02;;;;;;;1.53;1.07;;;;;;;4.22;100.00;92763.34;5099781;28;20468;-83
2020/12/28 09:14:29;;;;;;;1.73;1.00;;;;;;;4.26;100.00;92758.91;5099018;28;20520;-79
2020/12/28 09:16:55;;;;;;;1.37;1.00;;;;;;;4.36;100.00;92772.09;5096973;28;20545;-79
2020/12/28 09:19:22;;;;;;;1.60;1.00;;;;;;;4.38;100.00;92763.50;5098587;28;20523;-80
2020/12/28 09:21:48;;;;;;;1.60;1.43;;;;;;;4.31;100.00;92765.84;5099564;28;20452;-83
2020/12/28 09:24:14;;;;;;;2.07;1.50;;;;;;;4.36;100.00;92766.06;5099733;28;20480;-77
2020/12/28 09:26:41;;;;;;;1.27;0.93;;;;;;;4.41;100.00;92757.69;5099127;28;20468;-79
2020/12/28 09:29:08;;;;;;;1.33;1.00;;;;;;;4.31;100.00;92770.50;5100429;28;20419;-81
2020/12/28 09:31:34;;;;;;;2.17;1.40;;;;;;;4.36;100.00;92758.75;5103496;28;20464;-81
2020/12/28 09:34:01;;;;;;;2.27;1.47;;;;;;;4.48;100.00;92759.38;5101975;28;20444;-80
2020/12/28 09:36:27;;;;;;;1.23;1.13;;;;;;;4.44;100.00;92755.81;5100348;28;20571;-79
2020/12/28 09:38:54;;;;;;;3.40;1.40;;;;;;;4.47;100.00;92752.69;5096148;28;20436;-79
2020/12/28 09:41:20;;;;;;;2.70;1.57;;;;;;;4.42;100.00;92745.06;5097995;28;20470;-79
2020/12/28 09:43:47;;;;;;;1.60;1.10;;;;;;;4.42;100.00;92737.03;5100573;28;20448;-83
2020/12/28 09:46:18;;;;;;;5.70;1.30;;;;;;;4.59;100.00;92736.59;5101431;28;20440;-82
2020/12/28 09:48:45;;;;;;;1.97;1.03;;;;;;;4.60;100.00;92735.31;5101171;28;20427;-81
2020/12/28 09:51:11;;;;;;;4.47;2.13;;;;;;;4.61;100.00;92732.03;5101199;28;20480;-82
2020/12/28 09:53:38;;;;;;;2.60;1.60;;;;;;;4.57;100.00;92734.53;5099410;28;20425;-78
2020/12/28 09:56:05;;;;;;;3.00;1.90;;;;;;;4.61;100.00;92729.38;5098501;28;20575;-79
2020/12/28 09:58:32;;;;;;;3.80;1.97;;;;;;;4.58;100.00;92735.19;5097271;28;20436;-78
2020/12/28 10:00:59;;;;;;;2.87;1.40;;;;;;;4.58;100.00;92730.56;5098206;28;20448;-79
2020/12/28 10:03:26;;;;;;;3.10;1.93;;;;;;;4.62;100.00;92740.75;5098673;28;20451;-83
2020/12/28 10:05:52;;;;;;;2.57;2.13;;;;;;;4.54;100.00;92727.00;5101029;28;20468;-83
2020/12/28 10:08:19;;;;;;;2.70;1.60;;;;;;;4.62;100.00;92732.75;5097390;28;20900;-79
2020/12/28 10:10:45;;;;;;;1.60;1.50;;;;;;;4.68;100.00;92735.72;5095169;28;20937;-78
2020/12/28 10:13:12;;;;;;;3.30;1.57;;;;;;;4.66;100.00;92736.31;5095403;28;20493;-79
2020/12/28 10:15:38;;;;;;;2.40;1.70;;;;;;;4.73;100.00;92732.00;5096881;28;20843;-79
2020/12/28 10:18:32;;;;;;;1.67;1.40;;;;;;;4.76;100.00;92728.13;5095710;28;20440;-79
2020/12/28 10:21:00;;;;;;;2.73;1.87;;;;;;;4.75;100.00;92724.78;5097930;28;20456;-80
2020/12/28 10:23:26;;;;;;;1.83;1.67;;;;;;;4.70;100.00;92723.16;5098289;28;20531;-80
2020/12/28 10:25:53;;;;;;;1.83;1.70;;;;;;;4.75;100.00;92724.78;5098196;28;20997;-79
2020/12/28 10:28:19;;;;;;;2.80;2.20;;;;;;;4.70;100.00;92722.47;5097912;28;20449;-81
2020/12/28 10:30:45;;;;;;;5.40;2.83;;;;;;;4.63;100.00;92710.13;5099219;28;20448;-79
2020/12/28 10:33:12;;;;;;;6.73;3.00;;;;;;;4.68;100.00;92714.38;5098322;28;20448;-80
2020/12/28 10:35:38;;;;;;;5.30;3.33;;;;;;;4.65;100.00;92707.53;5100418;28;20571;-80
2020/12/28 10:38:05;;;;;;;7.17;4.57;;;;;;;4.63;100.00;92720.78;5099357;28;20471;-80
2020/12/28 10:40:32;;;;;;;4.67;3.47;;;;;;;4.71;100.00;92715.84;5099396;28;20941;-82
2020/12/28 10:42:59;;;;;;;4.80;3.40;;;;;;;4.69;100.00;92718.44;5100609;28;20610;-82
2020/12/28 10:45:25;;;;;;;4.60;3.00;;;;;;;4.68;100.00;92714.38;5100361;28;20577;-82
2020/12/28 10:47:52;;;;;;;5.53;3.03;;;;;;;4.75;100.00;92706.09;5115550;28;20432;-80
2020/12/28 10:50:18;;;;;;;4.00;3.30;;;;;;;4.73;100.00;92703.28;5122293;28;20435;-80
2020/12/28 10:52:45;;;;;;;3.90;3.33;;;;;;;4.83;100.00;92713.78;5122348;28;20476;-82
2020/12/28 10:55:12;;;;;;;4.80;3.50;;;;;;;4.91;100.00;92711.53;5121992;28;20421;-81
2020/12/28 10:57:39;;;;;;;4.40;3.27;;;;;;;4.89;99.07;92702.75;5111166;28;20941;-81
2020/12/28 11:00:05;;;;;;;4.40;3.30;;;;;;;4.79;99.10;92703.59;5106682;28;20441;-81
2020/12/28 11:02:31;;;;;;;4.20;3.43;;;;;;;4.77;98.94;92708.16;5102986;28;20579;-82
2020/12/28 11:04:58;;;;;;;5.23;3.53;;;;;;;4.78;98.85;92707.56;5105101;28;20467;-81
2020/12/28 11:07:24;;;;;;;5.73;3.63;;;;;;;4.85;99.46;92695.22;5105275;28;20452;-80
2020/12/28 11:09:50;;;;;;;6.17;3.83;;;;;;;4.89;99.11;92694.72;5104070;28;20447;-80
2020/12/28 11:12:18;;;;;;;5.63;3.60;;;;;;;4.77;99.31;92695.50;5102207;28;20494;-82
2020/12/28 11:14:44;;;;;;;4.40;3.40;;;;;;;4.84;100.00;92686.50;5100260;28;20501;-79
2020/12/28 11:17:10;;;;;;;6.23;4.20;;;;;;;4.84;99.77;92683.16;5098273;28;21102;-79
2020/12/28 11:19:37;;;;;;;5.00;3.63;;;;;;;4.86;99.56;92680.56;5100990;28;20440;-82
2020/12/28 11:22:03;;;;;;;5.90;3.67;;;;;;;4.95;99.78;92666.31;5103014;28;20455;-83
2020/12/28 11:24:29;;;;;;;3.63;3.27;;;;;;;4.90;98.98;92656.75;5103469;28;20469;-83
2020/12/28 11:26:56;;;;;;;4.33;3.10;;;;;;;4.96;99.23;92659.72;5102213;28;20436;-82
2020/12/28 11:29:23;;;;;;;4.70;3.60;;;;;;;4.90;98.99;92651.41;5103419;28;20447;-83
2020/12/28 11:31:49;;;;;;;3.63;3.00;;;;;;;4.99;99.40;92639.81;5104281;28;20521;-82
2020/12/28 11:34:16;;;;;;;3.57;2.90;;;;;;;5.09;97.89;92632.31;5102592;28;20462;-79
2020/12/28 11:36:43;;;;;;;4.03;3.20;;;;;;;5.09;97.46;92624.28;5100725;28;20538;-80
2020/12/28 11:39:11;;;;;;;3.20;2.80;;;;;;;5.08;97.30;92620.22;5104177;28;20499;-81